createdAt,value
2022-10-01T00:00:20.734Z,99903.72
2022-10-01T00:02:56.725Z,99863.22
2022-10-01T00:05:25.589Z,99865.22
2022-10-01T00:07:52.348Z,99906.50
2022-10-01T00:10:19.427Z,99869.38
2022-10-01T00:12:51.264Z,99932.38
2022-10-01T00:15:21.986Z,99871.38
2022-10-01T00:17:48.885Z,99893.09
2022-10-01T00:20:15.707Z,99892.13
2022-10-01T00:22:42.386Z,99922.94
2022-10-01T00:25:11.108Z,99950.03
2022-10-01T00:27:42.987Z,99895.13
2022-10-01T00:30:13.346Z,99895.25
2022-10-01T00:32:41.255Z,99917.28
2022-10-01T00:35:12.721Z,99902.19
2022-10-01T00:37:39.368Z,99888.78
2022-10-01T00:40:06.799Z,99901.81
2022-10-01T00:42:33.764Z,99936.09
2022-10-01T00:45:03.348Z,99902.94
2022-10-01T00:47:44.331Z,99887.16
2022-10-01T00:50:26.406Z,99878.75
2022-10-01T00:53:07.802Z,99874.75
2022-10-01T00:55:37.688Z,99900.00
2022-10-01T00:58:05.208Z,99949.31
2022-10-01T01:00:40.640Z,99859.47
2022-10-01T01:03:10.275Z,99904.47
2022-10-01T01:05:36.919Z,99925.03
2022-10-01T01:08:04.406Z,99958.38
2022-10-01T01:10:40.312Z,99915.84
2022-10-01T01:13:31.930Z,99902.31
2022-10-01T01:16:22.059Z,99988.94
2022-10-01T01:19:07.365Z,99995.84
2022-10-01T01:21:53.830Z,99960.53
2022-10-01T01:25:11.699Z,100012.56
2022-10-01T01:27:42.665Z,100022.25
2022-10-01T01:30:16.024Z,99962.13
2022-10-01T01:32:53.100Z,99938.81
2022-10-01T01:35:32.419Z,99963.41
2022-10-01T01:38:05.742Z,99974.72
2022-10-01T01:40:36.877Z,100009.72
2022-10-01T01:43:09.028Z,99980.94
2022-10-01T01:45:40.301Z,100038.22
2022-10-01T01:48:10.089Z,99978.94
2022-10-01T01:50:51.930Z,99976.69
2022-10-01T01:53:20.302Z,100046.28
2022-10-01T01:55:49.402Z,100004.44
2022-10-01T01:58:20.159Z,100062.25
2022-10-01T02:00:52.574Z,100061.50
2022-10-01T02:03:22.049Z,100060.72
2022-10-01T02:06:10.195Z,100059.31
2022-10-01T02:08:46.538Z,99965.75
2022-10-01T02:11:39.047Z,100014.59
2022-10-01T02:14:24.011Z,100064.66
2022-10-01T02:17:01.568Z,100029.16
2022-10-01T02:19:34.543Z,100056.31
2022-10-01T02:22:22.614Z,100016.59
2022-10-01T02:24:59.266Z,99995.44
2022-10-01T02:27:44.700Z,100056.59
2022-10-01T02:30:15.416Z,100017.00
2022-10-01T02:32:45.589Z,99957.66
2022-10-01T02:35:16.802Z,99990.44
2022-10-01T02:37:45.988Z,100065.38
2022-10-01T02:40:16.572Z,100027.22
2022-10-01T02:42:51.981Z,100044.34
2022-10-01T02:45:24.979Z,100018.84
2022-10-01T02:48:08.072Z,100020.84
2022-10-01T02:50:42.738Z,100035.97
2022-10-01T02:53:17.104Z,100032.97
2022-10-01T02:55:46.044Z,100021.34
2022-10-01T02:58:12.979Z,99999.53
2022-10-01T03:00:39.561Z,100003.31
2022-10-01T03:03:08.817Z,100033.38
2022-10-01T03:05:35.487Z,100046.16
2022-10-01T03:08:02.757Z,100055.06
2022-10-01T03:10:29.539Z,100028.13
2022-10-01T03:12:56.550Z,100058.94
2022-10-01T03:15:24.278Z,100057.75
2022-10-01T03:17:51.949Z,100054.50
2022-10-01T03:20:18.833Z,100094.72
2022-10-01T03:22:46.980Z,100111.09
2022-10-01T03:25:15.675Z,100118.13
2022-10-01T03:27:42.904Z,100076.53
2022-10-01T03:30:10.465Z,100062.25
2022-10-01T03:32:37.174Z,100094.69
2022-10-01T03:35:04.114Z,100071.13
2022-10-01T03:37:30.697Z,100086.66
2022-10-01T03:39:57.455Z,100116.63
2022-10-01T03:42:23.950Z,100119.22
2022-10-01T03:44:50.739Z,100068.38
2022-10-01T03:47:17.465Z,100148.50
2022-10-01T03:49:44.182Z,100104.50
2022-10-01T03:52:10.794Z,100102.19
2022-10-01T03:54:38.937Z,100114.25
2022-10-01T03:57:06.115Z,100165.59
2022-10-01T03:59:32.974Z,100129.06
2022-10-01T04:01:59.893Z,100165.72
2022-10-01T04:04:29.887Z,100101.00
2022-10-01T04:06:56.496Z,100163.25
2022-10-01T04:09:24.220Z,100133.56
2022-10-01T04:11:50.909Z,100106.19
2022-10-01T04:14:18.547Z,100165.94
2022-10-01T04:16:45.272Z,100171.28
2022-10-01T04:19:11.866Z,100215.78
2022-10-01T04:21:39.759Z,100183.34
2022-10-01T04:24:06.662Z,100167.47
2022-10-01T04:26:33.277Z,100171.84
2022-10-01T04:29:00.021Z,100160.75
2022-10-01T04:31:26.943Z,100224.78
2022-10-01T04:33:56.110Z,100189.22
2022-10-01T04:36:24.503Z,100198.81
2022-10-01T04:39:00.826Z,100173.97
2022-10-01T04:41:30.833Z,100207.72
2022-10-01T04:43:59.450Z,100234.88
2022-10-01T04:46:26.405Z,100184.09
2022-10-01T04:48:56.358Z,100188.47
2022-10-01T04:51:23.102Z,100197.59
2022-10-01T04:53:49.792Z,100223.59
2022-10-01T04:56:17.502Z,100227.84
2022-10-01T04:58:44.231Z,100204.06
2022-10-01T05:01:10.916Z,100222.13
2022-10-01T05:03:37.530Z,100244.13
2022-10-01T05:06:04.190Z,100171.22
2022-10-01T05:08:31.465Z,100233.50
2022-10-01T05:11:00.528Z,100253.28
2022-10-01T05:13:30.349Z,100222.63
2022-10-01T05:15:57.781Z,100213.44
2022-10-01T05:18:26.900Z,100271.50
2022-10-01T05:20:59.296Z,100216.13
2022-10-01T05:23:26.032Z,100195.91
2022-10-01T05:25:55.535Z,100260.75
2022-10-01T05:28:35.024Z,100220.06
2022-10-01T05:31:04.294Z,100213.50
2022-10-01T05:33:31.904Z,100222.06
2022-10-01T05:35:59.020Z,100316.81
2022-10-01T05:38:26.218Z,100292.38
2022-10-01T05:40:52.789Z,100332.63
2022-10-01T05:43:19.557Z,100322.50
2022-10-01T05:45:46.317Z,100291.06
2022-10-01T05:48:13.306Z,100282.72
2022-10-01T05:50:44.269Z,100283.75
2022-10-01T05:53:12.154Z,100285.69
2022-10-01T05:55:39.837Z,100285.09
2022-10-01T05:58:12.709Z,100287.72
2022-10-01T06:00:47.094Z,100302.44
2022-10-01T06:03:15.370Z,100261.63
2022-10-01T06:05:46.715Z,100327.41
2022-10-01T06:08:15.912Z,100353.84
2022-10-01T06:13:35.869Z,100335.25
2022-10-01T06:16:12.658Z,100307.97
2022-10-01T06:18:49.154Z,100335.34
2022-10-01T06:21:16.090Z,100343.97
2022-10-01T06:23:45.045Z,100294.56
2022-10-01T06:26:22.395Z,100290.38
2022-10-01T06:28:55.929Z,100364.75
2022-10-01T06:31:25.552Z,100338.50
2022-10-01T06:34:00.940Z,100380.28
2022-10-01T06:36:30.546Z,100346.06
2022-10-01T06:39:00.706Z,100358.09
2022-10-01T06:41:30.434Z,100352.81
2022-10-01T06:44:12.316Z,100355.34
2022-10-01T06:46:41.669Z,100359.72
2022-10-01T06:52:39.860Z,100313.63
2022-10-01T06:55:13.112Z,100369.00
2022-10-01T06:57:42.636Z,100425.22
2022-10-01T07:00:14.325Z,100390.38
2022-10-01T07:02:43.672Z,100394.81
2022-10-01T07:05:12.278Z,100381.06
2022-10-01T07:07:41.956Z,100359.59
2022-10-01T07:10:10.280Z,100367.34
2022-10-01T07:13:00.059Z,100389.53
2022-10-01T07:16:06.739Z,100361.97
2022-10-01T07:18:55.754Z,100383.91
2022-10-01T07:21:37.771Z,100352.16
2022-10-01T07:24:35.069Z,100367.47
2022-10-01T07:31:16.981Z,100402.63
2022-10-01T07:33:40.806Z,100381.75
2022-10-01T07:43:54.777Z,100401.53
2022-10-01T07:47:24.150Z,100411.22
2022-10-01T07:49:35.140Z,100431.56
2022-10-01T07:52:12.403Z,100398.66
2022-10-01T07:54:56.125Z,100451.19
2022-10-01T07:57:28.873Z,100439.13
2022-10-01T08:00:24.186Z,100528.38
2022-10-01T08:02:56.887Z,100432.44
2022-10-01T08:06:17.903Z,100437.09
2022-10-01T08:08:50.769Z,100484.56
2022-10-01T08:11:26.105Z,100491.97
2022-10-01T08:14:00.180Z,100470.34
2022-10-01T08:16:33.640Z,100471.19
2022-10-01T08:19:28.749Z,100513.81
2022-10-01T08:22:14.562Z,100501.53
2022-10-01T08:24:41.284Z,100540.75
2022-10-01T08:27:07.970Z,100558.47
2022-10-01T08:29:47.970Z,100484.28
2022-10-01T08:32:14.775Z,100519.91
2022-10-01T08:34:43.552Z,100508.75
2022-10-01T08:37:18.485Z,100484.72
2022-10-01T08:39:52.511Z,100526.13
2022-10-01T08:43:14.053Z,100591.06
2022-10-01T08:45:59.045Z,100592.66
2022-10-01T08:48:40.880Z,100622.53
2022-10-01T08:51:24.223Z,100577.16
2022-10-01T08:53:59.531Z,100592.75
2022-10-01T08:56:39.730Z,100602.22
2022-10-01T08:59:27.517Z,100590.94
2022-10-01T09:02:08.168Z,100543.28
2022-10-01T09:04:44.372Z,100539.03
2022-10-01T09:07:58.977Z,100615.41
2022-10-01T09:10:57.467Z,100640.47
2022-10-01T09:13:52.972Z,100612.75
2022-10-01T09:16:29.596Z,100638.28
2022-10-01T09:19:20.053Z,100645.75
2022-10-01T09:21:52.785Z,100555.69
2022-10-01T09:24:47.986Z,100655.06
2022-10-01T09:27:23.434Z,100618.75
2022-10-01T09:29:56.442Z,100599.53
2022-10-01T09:32:27.762Z,100639.31
2022-10-01T09:34:54.826Z,100617.13
2022-10-01T09:38:08.093Z,100640.25
2022-10-01T09:40:50.174Z,100626.81
2022-10-01T09:43:20.086Z,100670.03
2022-10-01T09:45:50.036Z,100615.09
2022-10-01T09:49:02.335Z,100684.63
2022-10-01T09:51:45.770Z,100613.16
2022-10-01T09:54:37.709Z,100583.00
2022-10-01T09:57:19.166Z,100640.34
2022-10-01T09:59:57.271Z,100632.53
2022-10-01T10:02:32.235Z,100649.97
2022-10-01T10:05:10.556Z,100696.00
2022-10-01T10:08:03.291Z,100695.84
2022-10-01T10:11:12.688Z,100613.50
2022-10-01T10:13:45.446Z,100674.63
2022-10-01T10:16:36.711Z,100614.78
2022-10-01T10:19:10.408Z,100707.84
2022-10-01T10:21:42.360Z,100702.44
2022-10-01T10:24:24.292Z,100629.13
2022-10-01T10:27:06.427Z,100660.38
2022-10-01T10:29:40.486Z,100642.91
2022-10-01T10:32:18.028Z,100619.97
2022-10-01T10:35:05.591Z,100612.84
2022-10-01T10:37:38.677Z,100682.97
2022-10-01T10:40:11.157Z,100723.38
2022-10-01T10:43:07.119Z,100728.59
2022-10-01T10:45:40.445Z,100729.03
2022-10-01T10:48:16.912Z,100722.97
2022-10-01T10:50:46.916Z,100650.88
2022-10-01T10:53:49.089Z,100716.50
2022-10-01T10:56:23.909Z,100700.47
2022-10-01T10:58:54.572Z,100743.91
2022-10-01T11:01:29.787Z,100751.06
2022-10-01T11:04:00.050Z,100715.94
2022-10-01T11:06:28.635Z,100703.59
2022-10-01T11:09:08.230Z,100755.97
2022-10-01T11:11:44.222Z,100750.16
2022-10-01T11:14:38.965Z,100768.09
2022-10-01T11:17:21.095Z,100761.81
2022-10-01T11:19:56.747Z,100767.75
2022-10-01T11:22:44.330Z,100761.66
2022-10-01T11:25:22.528Z,100690.53
2022-10-01T11:28:09.788Z,100767.66
2022-10-01T11:30:54.316Z,100767.84
2022-10-01T11:33:33.030Z,100772.94
2022-10-01T11:36:11.740Z,100765.72
2022-10-01T11:39:03.079Z,100760.38
2022-10-01T11:41:50.267Z,100762.06
2022-10-01T11:44:24.679Z,100745.06
2022-10-01T11:47:03.089Z,100784.31
2022-10-01T11:49:42.573Z,100787.63
2022-10-01T11:52:21.186Z,100792.81
2022-10-01T11:55:22.870Z,100800.88
2022-10-01T11:58:14.743Z,100800.34
2022-10-01T12:00:52.326Z,100795.75
2022-10-01T12:03:25.309Z,100796.38
2022-10-01T12:05:53.536Z,100780.88
2022-10-01T12:08:29.645Z,100726.19
2022-10-01T12:11:09.818Z,100794.03
2022-10-01T12:13:41.235Z,100806.88
2022-10-01T12:16:31.574Z,100804.78
2022-10-01T12:19:14.776Z,100798.00
2022-10-01T12:21:46.856Z,100785.25
2022-10-01T12:24:18.671Z,100785.13
2022-10-01T12:26:57.910Z,100787.88
2022-10-01T12:29:33.319Z,100765.41
2022-10-01T12:31:59.751Z,100808.28
2022-10-01T12:34:54.340Z,100798.91
2022-10-01T12:37:40.050Z,100810.31
2022-10-01T12:40:21.915Z,100797.81
2022-10-01T12:43:04.267Z,100810.84
2022-10-01T12:46:02.892Z,100822.59
2022-10-01T12:48:49.291Z,100811.19
2022-10-01T12:51:21.769Z,100814.59
2022-10-01T12:54:21.030Z,100820.88
2022-10-01T12:57:17.346Z,100831.44
2022-10-01T13:00:10.668Z,100820.38
2022-10-01T13:02:53.111Z,100834.63
2022-10-01T13:05:50.710Z,100831.19
2022-10-01T13:08:17.291Z,100838.00
2022-10-01T13:10:50.083Z,100849.34
2022-10-01T13:13:22.950Z,100809.78
2022-10-01T13:15:58.741Z,100819.47
2022-10-01T13:18:31.430Z,100851.91
2022-10-01T13:21:30.423Z,100854.72
2022-10-01T13:24:00.865Z,100837.94
2022-10-01T13:26:43.247Z,100832.59
2022-10-01T13:29:35.042Z,100848.84
2022-10-01T13:32:04.451Z,100853.78
2022-10-01T13:34:39.981Z,100855.28
2022-10-01T13:37:11.843Z,100827.72
2022-10-01T13:39:42.055Z,100841.94
2022-10-01T13:42:23.113Z,100858.81
2022-10-01T13:45:24.535Z,100864.50
2022-10-01T13:47:51.308Z,100858.28
2022-10-01T13:50:24.338Z,100849.00
2022-10-01T13:52:52.449Z,100866.59
2022-10-01T13:55:30.574Z,100880.22
2022-10-01T13:58:20.494Z,100870.44
2022-10-01T14:00:56.319Z,100866.16
2022-10-01T14:03:50.669Z,100876.22
2022-10-01T14:06:24.447Z,100863.25
2022-10-01T14:09:13.154Z,100880.47
2022-10-01T14:12:03.190Z,100863.44
2022-10-01T14:14:54.024Z,100856.97
2022-10-01T14:17:31.589Z,100884.94
2022-10-01T14:20:00.548Z,100869.78
2022-10-01T14:23:01.745Z,100888.34
2022-10-01T14:26:01.958Z,100886.88
2022-10-01T14:28:34.570Z,100886.19
2022-10-01T14:31:07.157Z,100892.66
2022-10-01T14:34:06.440Z,100885.63
2022-10-01T14:36:42.679Z,100871.00
2022-10-01T14:39:27.848Z,100884.06
2022-10-01T14:41:56.798Z,100888.56
2022-10-01T14:44:29.558Z,100891.75
2022-10-01T14:46:57.979Z,100892.84
2022-10-01T14:49:32.356Z,100885.72
2022-10-01T14:52:03.840Z,100857.94
2022-10-01T14:54:37.336Z,100886.84
2022-10-01T14:57:15.101Z,100872.88
2022-10-01T14:59:42.080Z,100871.19
2022-10-01T15:02:20.817Z,100897.13
2022-10-01T15:04:50.764Z,100901.13
2022-10-01T15:07:17.840Z,100897.16
2022-10-01T15:09:45.486Z,100895.81
2022-10-01T15:12:13.644Z,100850.41
2022-10-01T15:14:42.520Z,100901.44
2022-10-01T15:17:18.210Z,100909.41
2022-10-01T15:19:47.404Z,100883.44
2022-10-01T15:22:16.307Z,100914.38
2022-10-01T15:24:49.035Z,100905.75
2022-10-01T15:27:19.106Z,100900.19
2022-10-01T15:29:46.614Z,100914.34
2022-10-01T15:32:16.598Z,100907.44
2022-10-01T15:34:48.528Z,100910.16
2022-10-01T15:37:32.549Z,100919.56
2022-10-01T15:40:00.839Z,100906.31
2022-10-01T15:42:31.532Z,100907.47
2022-10-01T15:45:07.106Z,100923.44
2022-10-01T15:47:38.577Z,100930.94
2022-10-01T15:50:15.232Z,100944.56
2022-10-01T15:52:51.123Z,100946.88
2022-10-01T15:55:21.677Z,100919.34
2022-10-01T15:58:06.737Z,100952.25
2022-10-01T16:00:52.746Z,100954.63
2022-10-01T16:03:27.347Z,100957.00
2022-10-01T16:05:55.294Z,100941.56
2022-10-01T16:08:25.660Z,100962.47
2022-10-01T16:11:18.692Z,100957.69
2022-10-01T16:13:48.895Z,100965.00
2022-10-01T16:16:25.043Z,100968.91
2022-10-01T16:19:20.216Z,100945.31
2022-10-01T16:22:19.203Z,100976.53
2022-10-01T16:25:26.166Z,100970.84
2022-10-01T16:28:03.956Z,100978.31
2022-10-01T16:30:32.710Z,100966.16
2022-10-01T16:33:02.441Z,100965.75
2022-10-01T16:35:32.635Z,100987.69
2022-10-01T16:37:59.474Z,100987.88
2022-10-01T16:40:28.295Z,100995.31
2022-10-01T16:42:55.526Z,101004.75
2022-10-01T16:45:27.716Z,101007.78
2022-10-01T16:47:56.757Z,100998.50
2022-10-01T16:50:24.190Z,100950.84
2022-10-01T16:52:56.970Z,101001.00
2022-10-01T16:55:31.384Z,101008.34
2022-10-01T16:57:58.005Z,101003.81
2022-10-01T17:00:26.678Z,101024.72
2022-10-01T17:02:54.699Z,101019.81
2022-10-01T17:05:32.960Z,101025.44
2022-10-01T17:08:01.179Z,101036.78
2022-10-01T17:10:33.731Z,101049.38
2022-10-01T17:13:00.314Z,101012.63
2022-10-01T17:15:28.092Z,101023.03
2022-10-01T17:17:55.775Z,101044.31
2022-10-01T17:20:23.548Z,101052.34
2022-10-01T17:22:50.609Z,101009.91
2022-10-01T17:25:20.077Z,101063.38
2022-10-01T17:27:46.941Z,101023.13
2022-10-01T17:30:14.331Z,101036.91
2022-10-01T17:32:43.039Z,101057.00
2022-10-01T17:35:14.701Z,101055.75
2022-10-01T17:37:41.986Z,101041.56
2022-10-01T17:40:09.821Z,101031.78
2022-10-01T17:42:36.709Z,101089.53
2022-10-01T17:45:06.534Z,101071.28
2022-10-01T17:47:33.823Z,101088.16
2022-10-01T17:50:00.464Z,101091.09
2022-10-01T17:52:26.976Z,101063.84
2022-10-01T17:54:53.535Z,101087.09
2022-10-01T17:57:20.165Z,101079.88
2022-10-01T17:59:46.708Z,101098.88
2022-10-01T18:02:36.505Z,101111.06
2022-10-01T18:05:01.192Z,101081.25
2022-10-01T18:07:27.765Z,101124.53
2022-10-01T18:09:54.465Z,101097.50
2022-10-01T18:12:21.015Z,101108.75
2022-10-01T18:14:48.700Z,101083.81
2022-10-01T18:17:15.545Z,101101.06
2022-10-01T18:19:57.590Z,101135.88
2022-10-01T18:22:24.660Z,101132.59
2022-10-01T18:24:51.190Z,101123.56
2022-10-01T18:27:18.805Z,101071.41
2022-10-01T18:29:45.396Z,101141.25
2022-10-01T18:32:21.700Z,101144.25
2022-10-01T18:34:58.886Z,101103.03
2022-10-01T18:37:37.571Z,101141.72
2022-10-01T18:40:12.429Z,101140.06
2022-10-01T18:42:51.328Z,101144.63
2022-10-01T18:45:40.775Z,101117.56
2022-10-01T18:48:13.397Z,101166.66
2022-10-01T18:50:58.202Z,101180.72
2022-10-01T18:53:34.624Z,101182.56
2022-10-01T18:56:20.929Z,101177.41
2022-10-01T18:59:05.793Z,101173.13
2022-10-01T19:02:09.872Z,101160.91
2022-10-01T19:05:05.729Z,101182.00
2022-10-01T19:08:01.194Z,101171.63
2022-10-01T19:10:37.572Z,101181.16
2022-10-01T19:13:17.952Z,101175.28
2022-10-01T19:15:54.395Z,101154.81
2022-10-01T19:18:39.714Z,101183.91
2022-10-01T19:21:21.924Z,101132.41
2022-10-01T19:24:10.354Z,101183.28
2022-10-01T19:27:04.573Z,101180.72
2022-10-01T19:29:55.102Z,101159.69
2022-10-01T19:32:25.715Z,101183.56
2022-10-01T19:35:00.595Z,101184.50
2022-10-01T19:37:41.154Z,101165.88
2022-10-01T19:40:30.911Z,101166.88
2022-10-01T19:43:16.559Z,101197.34
2022-10-01T19:46:08.956Z,101223.16
2022-10-01T19:48:51.002Z,101228.41
2022-10-01T19:51:23.417Z,101231.84
2022-10-01T19:53:59.953Z,101224.28
2022-10-01T19:56:32.353Z,101207.94
2022-10-01T19:59:10.624Z,101222.78
2022-10-01T20:01:41.858Z,101256.28
2022-10-01T20:04:18.479Z,101227.16
2022-10-01T20:06:46.866Z,101250.06
2022-10-01T20:09:23.242Z,101263.22
2022-10-01T20:12:04.585Z,101235.69
2022-10-01T20:15:00.188Z,101278.06
2022-10-01T20:17:51.087Z,101283.50
2022-10-01T20:20:26.761Z,101290.34
2022-10-01T20:23:36.801Z,101281.78
2022-10-01T20:26:06.675Z,101277.22
2022-10-01T20:29:06.016Z,101242.75
2022-10-01T20:31:57.308Z,101233.44
2022-10-01T20:35:01.999Z,101270.41
2022-10-01T20:38:11.110Z,101279.19
2022-10-01T20:40:44.163Z,101260.41
2022-10-01T20:43:19.789Z,101289.81
2022-10-01T20:45:50.005Z,101302.06
2022-10-01T20:48:27.635Z,101271.47
2022-10-01T20:51:01.652Z,101247.50
2022-10-01T20:53:54.042Z,101311.91
2022-10-01T20:56:40.335Z,101326.84
2022-10-01T20:59:25.393Z,101341.56
2022-10-01T21:02:13.613Z,101283.31
2022-10-01T21:04:48.675Z,101327.84
2022-10-01T21:07:50.021Z,101323.59
2022-10-01T21:10:28.919Z,101321.69
2022-10-01T21:13:14.315Z,101323.31
2022-10-01T21:16:25.057Z,101315.56
2022-10-01T21:19:17.460Z,101314.72
2022-10-01T21:22:23.166Z,101315.72
2022-10-01T21:24:49.650Z,101339.06
2022-10-01T21:27:24.017Z,101339.06
2022-10-01T21:30:14.210Z,101337.34
2022-10-01T21:33:00.080Z,101354.81
2022-10-01T21:35:43.888Z,101346.09
2022-10-01T21:38:29.271Z,101352.97
2022-10-01T21:41:38.590Z,101338.22
2022-10-01T21:44:41.710Z,101346.03
2022-10-01T21:47:22.427Z,101339.13
2022-10-01T21:49:54.919Z,101349.50
2022-10-01T21:52:21.404Z,101357.38
2022-10-01T21:55:14.007Z,101337.34
2022-10-01T21:57:51.479Z,101354.81
2022-10-01T22:00:26.220Z,101334.94
2022-10-01T22:02:53.197Z,101358.22
2022-10-01T22:05:34.298Z,101337.78
2022-10-01T22:08:16.003Z,101365.31
2022-10-01T22:10:46.456Z,101374.88
2022-10-01T22:13:22.429Z,101371.47
2022-10-01T22:15:53.453Z,101382.75
2022-10-01T22:18:45.846Z,101391.53
2022-10-01T22:21:19.858Z,101378.66
2022-10-01T22:23:52.666Z,101398.69
2022-10-01T22:26:23.703Z,101386.75
2022-10-01T22:28:53.920Z,101378.34
2022-10-01T22:31:27.743Z,101398.31
2022-10-01T22:34:10.865Z,101382.88
2022-10-01T22:37:17.086Z,101397.81
2022-10-01T22:39:55.604Z,101392.81
2022-10-01T22:42:46.688Z,101403.41
2022-10-01T22:45:15.782Z,101401.75
2022-10-01T22:48:09.400Z,101396.97
2022-10-01T22:50:49.447Z,101419.63
2022-10-01T22:53:34.090Z,101421.53
2022-10-01T22:56:00.654Z,101369.88
2022-10-01T22:58:35.797Z,101419.03
2022-10-01T23:01:40.012Z,101421.69
2022-10-01T23:04:18.578Z,101416.50
2022-10-01T23:07:01.438Z,101408.97
2022-10-01T23:10:08.011Z,101415.97
2022-10-01T23:12:40.935Z,101426.47
2022-10-01T23:15:19.049Z,101431.00
2022-10-01T23:18:04.699Z,101417.25
2022-10-01T23:20:43.677Z,101397.66
2022-10-01T23:23:22.400Z,101442.56
2022-10-01T23:26:31.329Z,101438.31
2022-10-01T23:29:06.843Z,101450.59
2022-10-01T23:32:11.394Z,101419.69
2022-10-01T23:34:58.146Z,101426.31
2022-10-01T23:37:51.770Z,101423.66
2022-10-01T23:40:21.144Z,101400.47
2022-10-01T23:42:56.730Z,101377.25
2022-10-01T23:45:34.946Z,101420.38
2022-10-01T23:48:13.241Z,101407.63
2022-10-01T23:50:52.102Z,101433.41
2022-10-01T23:53:28.263Z,101442.28
2022-10-01T23:56:26.341Z,101456.19
2022-10-01T23:59:03.291Z,101437.28
